createdAt,value
2018-08-30T00:02:31.387Z,21.77
2018-08-30T00:05:09.097Z,23.07
2018-08-30T00:07:43.504Z,24.60
2018-08-30T00:10:16.687Z,27.33
2018-08-30T00:12:49.524Z,18.57
2018-08-30T00:15:22.731Z,22.53
2018-08-30T00:17:55.700Z,25.50
2018-08-30T00:20:30.649Z,27.43
2018-08-30T00:23:03.763Z,28.10
2018-08-30T00:25:40.812Z,21.50
2018-08-30T00:28:14.428Z,15.90
2018-08-30T00:30:47.329Z,33.47
2018-08-30T00:33:20.848Z,37.30
2018-08-30T00:35:55.376Z,25.10
2018-08-30T00:38:28.123Z,28.80
2018-08-30T00:41:15.901Z,22.97
2018-08-30T00:43:49.054Z,25.40
2018-08-30T00:46:23.340Z,29.77
2018-08-30T00:48:56.234Z,14.00
2018-08-30T00:51:29.042Z,29.50
2018-08-30T00:57:34.818Z,32.70
2018-08-30T01:00:09.598Z,26.17
2018-08-30T01:02:42.947Z,22.23
2018-08-30T01:05:16.019Z,29.37
2018-08-30T01:07:49.657Z,39.80
2018-08-30T01:10:23.415Z,41.43
2018-08-30T01:12:57.643Z,12.17
2018-08-30T01:15:31.072Z,18.60
2018-08-30T01:18:41.106Z,23.23
2018-08-30T01:21:15.488Z,23.60
2018-08-30T01:23:48.587Z,14.07
2018-08-30T01:26:21.306Z,12.03
2018-08-30T01:28:54.392Z,10.80
2018-08-30T01:31:27.539Z,8.87
2018-08-30T01:34:00.700Z,9.73
2018-08-30T01:36:33.603Z,5.33
2018-08-30T01:39:07.168Z,6.00
2018-08-30T01:41:41.462Z,6.60
2018-08-30T01:44:15.714Z,11.03
2018-08-30T01:46:48.249Z,6.60
2018-08-30T01:49:22.738Z,12.60
2018-08-30T01:51:56.016Z,12.13
2018-08-30T01:54:28.844Z,25.03
2018-08-30T01:57:01.628Z,48.80
2018-08-30T01:59:34.764Z,25.00
2018-08-30T02:02:07.808Z,22.57
2018-08-30T02:04:41.310Z,21.93
2018-08-30T02:07:14.336Z,10.83
2018-08-30T02:09:48.775Z,19.90
2018-08-30T02:12:21.383Z,10.43
2018-08-30T02:14:54.161Z,11.07
2018-08-30T02:17:27.168Z,11.30
2018-08-30T02:20:00.672Z,12.47
2018-08-30T02:22:33.638Z,10.10
2018-08-30T02:25:06.776Z,13.23
2018-08-30T02:27:39.480Z,14.57
2018-08-30T02:30:12.648Z,14.23
2018-08-30T02:32:46.238Z,12.07
2018-08-30T02:36:03.255Z,15.47
2018-08-30T02:38:36.275Z,14.43
2018-08-30T02:41:08.614Z,21.90
2018-08-30T02:43:43.907Z,25.43
2018-08-30T02:46:16.281Z,24.53
2018-08-30T02:48:50.899Z,25.93
2018-08-30T02:51:24.023Z,22.80
2018-08-30T02:53:57.903Z,26.90
2018-08-30T02:56:30.757Z,31.53
2018-08-30T02:59:04.016Z,35.00
2018-08-30T03:01:36.872Z,22.90
2018-08-30T03:04:09.707Z,18.77
2018-08-30T03:06:43.128Z,24.87
2018-08-30T03:09:15.890Z,22.23
2018-08-30T03:11:48.530Z,27.57
2018-08-30T03:14:21.531Z,32.30
2018-08-30T03:16:54.158Z,28.30
2018-08-30T03:19:26.985Z,27.47
2018-08-30T03:21:59.285Z,21.70
2018-08-30T03:24:32.151Z,20.70
2018-08-30T03:27:04.737Z,16.60
2018-08-30T03:29:37.108Z,11.43
2018-08-30T03:32:10.002Z,14.67
2018-08-30T03:34:42.534Z,15.97
2018-08-30T03:37:15.888Z,15.07
2018-08-30T03:39:49.242Z,12.37
2018-08-30T03:42:23.763Z,12.73
2018-08-30T03:44:56.775Z,9.73
2018-08-30T03:47:41.218Z,9.93
2018-08-30T03:50:13.931Z,11.30
2018-08-30T03:52:46.389Z,11.43
2018-08-30T03:55:19.658Z,12.97
2018-08-30T03:57:52.213Z,12.73
2018-08-30T04:00:25.854Z,13.20
2018-08-30T04:03:01.196Z,19.33
2018-08-30T04:05:34.246Z,18.70
2018-08-30T04:08:07.016Z,18.83
2018-08-30T04:10:40.243Z,17.33
2018-08-30T04:13:12.857Z,17.63
2018-08-30T04:15:45.307Z,14.13
2018-08-30T04:18:18.384Z,15.03
2018-08-30T04:20:51.081Z,21.03
2018-08-30T04:23:25.451Z,18.60
2018-08-30T04:25:58.335Z,20.57
2018-08-30T04:28:30.702Z,23.17
2018-08-30T04:31:03.788Z,23.57
2018-08-30T04:33:36.882Z,22.93
2018-08-30T04:36:12.438Z,29.20
2018-08-30T04:38:45.398Z,24.20
2018-08-30T04:41:18.265Z,27.80
2018-08-30T04:43:51.413Z,29.23
2018-08-30T04:46:24.815Z,22.10
2018-08-30T04:48:58.322Z,30.83
2018-08-30T04:51:30.689Z,21.63
2018-08-30T04:54:03.401Z,21.80
2018-08-30T04:56:36.606Z,22.07
2018-08-30T04:59:09.743Z,20.40
2018-08-30T05:01:43.004Z,18.50
2018-08-30T05:04:16.204Z,21.17
2018-08-30T05:07:24.877Z,20.90
2018-08-30T05:09:57.676Z,26.73
2018-08-30T05:12:30.738Z,23.57
2018-08-30T05:15:05.161Z,24.27
2018-08-30T05:17:37.948Z,26.23
2018-08-30T05:20:11.247Z,24.73
2018-08-30T05:22:44.024Z,29.60
2018-08-30T05:25:17.086Z,27.97
2018-08-30T05:27:49.960Z,28.63
2018-08-30T05:30:22.940Z,29.40
2018-08-30T05:32:55.976Z,22.60
2018-08-30T05:35:28.798Z,22.87
2018-08-30T05:38:01.787Z,24.47
2018-08-30T05:40:34.650Z,25.27
2018-08-30T05:43:07.544Z,27.83
2018-08-30T05:45:40.708Z,24.97
2018-08-30T05:48:14.203Z,26.53
2018-08-30T05:50:46.906Z,22.43
2018-08-30T05:53:20.149Z,20.23
2018-08-30T05:55:53.090Z,19.30
2018-08-30T05:58:26.011Z,15.93
2018-08-30T06:00:58.778Z,16.73
2018-08-30T06:03:31.382Z,14.13
2018-08-30T06:06:04.128Z,21.37
2018-08-30T06:08:36.700Z,22.87
2018-08-30T06:11:09.254Z,24.67
2018-08-30T06:13:42.084Z,26.37
2018-08-30T06:16:14.806Z,17.17
2018-08-30T06:18:47.598Z,18.13
2018-08-30T06:21:20.717Z,28.23
2018-08-30T06:23:53.749Z,26.47
2018-08-30T06:26:26.786Z,18.93
2018-08-30T06:28:59.263Z,16.37
2018-08-30T06:31:32.036Z,17.97
2018-08-30T06:34:04.973Z,13.47
2018-08-30T06:36:37.989Z,13.00
2018-08-30T06:39:11.524Z,12.97
2018-08-30T06:41:44.270Z,12.60
2018-08-30T06:44:17.078Z,10.77
2018-08-30T06:46:49.778Z,8.90
2018-08-30T06:49:22.247Z,10.07
2018-08-30T06:51:55.080Z,9.07
2018-08-30T06:54:27.512Z,9.50
2018-08-30T06:57:00.626Z,7.40
2018-08-30T06:59:33.527Z,10.83
2018-08-30T07:02:06.548Z,7.40
2018-08-30T07:04:38.875Z,8.83
2018-08-30T07:07:12.466Z,8.17
2018-08-30T07:09:46.719Z,6.00
2018-08-30T07:12:21.657Z,6.60
2018-08-30T07:14:54.537Z,8.00
2018-08-30T07:17:27.567Z,8.87
2018-08-30T07:20:00.880Z,9.37
2018-08-30T07:22:33.791Z,8.73
2018-08-30T07:25:06.598Z,9.10
2018-08-30T07:27:39.093Z,5.90
2018-08-30T07:30:14.494Z,8.80
2018-08-30T07:32:46.998Z,6.97
2018-08-30T07:35:20.597Z,6.30
2018-08-30T07:37:53.609Z,7.20
2018-08-30T07:40:26.066Z,4.00
2018-08-30T07:42:58.887Z,4.63
2018-08-30T07:45:31.556Z,5.90
2018-08-30T07:48:04.281Z,6.67
2018-08-30T07:50:36.937Z,8.00
2018-08-30T07:53:09.998Z,4.27
2018-08-30T07:55:48.471Z,4.33
2018-08-30T07:58:21.363Z,4.10
2018-08-30T08:00:54.007Z,6.00
2018-08-30T08:03:27.059Z,4.00
2018-08-30T08:06:44.622Z,5.93
2018-08-30T08:09:17.026Z,4.83
2018-08-30T08:15:20.682Z,6.47
2018-08-30T08:17:53.273Z,5.00
2018-08-30T08:20:26.699Z,5.50
2018-08-30T08:22:59.627Z,6.53
2018-08-30T08:25:34.852Z,8.30
2018-08-30T08:28:10.105Z,8.20
2018-08-30T08:30:46.648Z,7.87
2018-08-30T08:33:23.631Z,7.57
2018-08-30T08:35:59.048Z,7.97
2018-08-30T08:38:33.397Z,7.47
2018-08-30T08:41:05.976Z,7.43
2018-08-30T08:43:38.276Z,8.40
2018-08-30T08:49:32.760Z,9.03
2018-08-30T08:52:06.348Z,9.07
2018-08-30T08:54:39.105Z,10.93
2018-08-30T08:57:12.730Z,9.63
2018-08-30T08:59:46.178Z,12.03
2018-08-30T09:02:19.857Z,12.60
2018-08-30T09:04:53.598Z,13.20
2018-08-30T09:10:57.508Z,10.97
2018-08-30T09:13:30.604Z,11.53
2018-08-30T09:16:03.928Z,11.70
2018-08-30T09:18:37.331Z,10.47
2018-08-30T09:21:10.980Z,9.47
2018-08-30T09:23:44.228Z,9.70
2018-08-30T09:26:17.494Z,10.30
2018-08-30T09:28:50.900Z,8.90
2018-08-30T09:31:24.269Z,10.70
2018-08-30T09:33:57.406Z,9.10
2018-08-30T09:36:30.629Z,10.90
2018-08-30T09:39:04.363Z,8.90
2018-08-30T09:41:37.547Z,7.73
2018-08-30T09:44:11.043Z,7.53
2018-08-30T09:46:44.558Z,9.23
2018-08-30T09:49:17.871Z,12.37
2018-08-30T09:51:50.958Z,7.67
2018-08-30T09:54:24.325Z,9.07
2018-08-30T09:56:57.676Z,8.03
2018-08-30T09:59:31.268Z,9.10
2018-08-30T10:02:08.717Z,11.13
2018-08-30T10:04:42.095Z,12.60
2018-08-30T10:07:15.614Z,12.93
2018-08-30T10:09:49.092Z,9.70
2018-08-30T10:12:22.361Z,13.60
2018-08-30T10:14:55.860Z,13.10
2018-08-30T10:17:29.143Z,14.20
2018-08-30T10:20:02.802Z,12.93
2018-08-30T10:22:36.134Z,17.07
2018-08-30T10:25:09.715Z,15.37
2018-08-30T10:27:42.868Z,15.50
2018-08-30T10:30:16.021Z,15.10
2018-08-30T10:32:49.896Z,12.93
2018-08-30T10:35:24.348Z,14.00
2018-08-30T10:37:57.704Z,15.37
2018-08-30T10:40:30.992Z,18.43
2018-08-30T10:43:04.380Z,15.10
2018-08-30T10:45:37.832Z,16.87
2018-08-30T10:48:11.256Z,20.10
2018-08-30T10:50:44.484Z,19.87
2018-08-30T10:53:17.712Z,18.10
2018-08-30T10:55:51.359Z,15.00
2018-08-30T10:58:25.429Z,16.10
2018-08-30T11:00:58.939Z,18.33
2018-08-30T11:03:32.881Z,18.90
2018-08-30T11:06:06.687Z,19.80
2018-08-30T11:08:40.231Z,21.67
2018-08-30T11:11:13.506Z,19.23
2018-08-30T11:13:46.750Z,18.07
2018-08-30T11:16:19.982Z,25.53
2018-08-30T11:18:53.473Z,22.20
2018-08-30T11:21:26.896Z,23.37
2018-08-30T11:24:00.289Z,23.03
2018-08-30T11:26:33.458Z,23.97
2018-08-30T11:29:06.741Z,28.87
2018-08-30T11:31:39.844Z,37.23
2018-08-30T11:34:13.156Z,27.60
2018-08-30T11:36:46.513Z,23.97
2018-08-30T11:39:19.564Z,23.50
2018-08-30T11:41:52.807Z,23.53
2018-08-30T11:44:25.890Z,25.30
2018-08-30T11:46:59.185Z,37.40
2018-08-30T11:49:32.690Z,41.00
2018-08-30T11:52:06.380Z,33.93
2018-08-30T11:54:47.882Z,31.90
2018-08-30T11:57:21.647Z,31.10
2018-08-30T11:59:54.993Z,30.63
2018-08-30T12:02:29.544Z,28.77
2018-08-30T12:08:33.691Z,32.57
2018-08-30T12:11:06.810Z,33.57
2018-08-30T12:13:40.924Z,31.07
2018-08-30T12:16:13.724Z,29.53
2018-08-30T12:18:46.746Z,29.90
2018-08-30T12:21:19.717Z,26.67
2018-08-30T12:32:16.560Z,27.33
2018-08-30T12:34:50.242Z,26.30
2018-08-30T12:37:24.076Z,28.57
2018-08-30T12:39:58.294Z,22.80
2018-08-30T12:42:32.146Z,18.77
2018-08-30T12:45:05.612Z,24.53
2018-08-30T12:47:39.171Z,25.50
2018-08-30T12:50:12.926Z,20.77
2018-08-30T12:52:48.017Z,21.73
2018-08-30T12:55:54.188Z,16.67
2018-08-30T12:58:29.560Z,16.67
2018-08-30T13:01:03.662Z,20.97
2018-08-30T13:03:37.680Z,19.57
2018-08-30T13:06:11.426Z,24.20
2018-08-30T13:08:44.702Z,19.17
2018-08-30T13:11:18.147Z,18.67
2018-08-30T13:13:51.563Z,16.57
2018-08-30T13:16:25.265Z,21.33
2018-08-30T13:18:58.448Z,21.33
2018-08-30T13:21:32.807Z,18.73
2018-08-30T13:24:07.663Z,26.30
2018-08-30T13:26:41.377Z,29.70
2018-08-30T13:29:14.816Z,28.43
2018-08-30T13:31:48.440Z,29.37
2018-08-30T13:34:22.998Z,20.20
2018-08-30T13:36:56.719Z,21.73
2018-08-30T13:39:30.929Z,21.23
2018-08-30T13:42:04.455Z,29.83
2018-08-30T13:44:37.577Z,22.57
2018-08-30T13:47:14.781Z,25.17
2018-08-30T13:50:09.464Z,20.57
2018-08-30T13:53:05.305Z,18.13
2018-08-30T13:56:01.627Z,13.77
2018-08-30T13:59:03.164Z,13.53
2018-08-30T14:01:58.960Z,11.80
2018-08-30T14:07:58.180Z,10.23
2018-08-30T14:10:50.796Z,9.83
2018-08-30T14:13:25.171Z,9.80
2018-08-30T14:15:57.785Z,12.63
2018-08-30T14:21:56.974Z,10.33
2018-08-30T14:24:29.638Z,8.27
2018-08-30T14:27:02.186Z,7.70
2018-08-30T14:29:35.020Z,8.40
2018-08-30T14:32:52.515Z,10.33
2018-08-30T14:35:25.555Z,6.73
2018-08-30T14:37:58.173Z,7.50
2018-08-30T14:40:32.908Z,11.07
2018-08-30T14:43:05.223Z,11.83
2018-08-30T14:45:38.285Z,8.27
2018-08-30T14:48:11.859Z,14.30
2018-08-30T14:50:45.090Z,10.47
2018-08-30T14:53:18.162Z,6.47
2018-08-30T14:55:51.483Z,9.33
2018-08-30T14:58:24.691Z,17.27
2018-08-30T15:00:57.467Z,11.70
2018-08-30T15:03:30.216Z,8.43
2018-08-30T15:06:03.078Z,8.17
2018-08-30T15:08:36.171Z,6.00
2018-08-30T15:11:09.011Z,8.17
2018-08-30T15:13:42.174Z,5.97
2018-08-30T15:16:15.228Z,11.13
2018-08-30T15:18:48.324Z,6.37
2018-08-30T15:21:22.192Z,7.10
2018-08-30T15:23:55.422Z,9.37
2018-08-30T15:26:28.505Z,11.03
2018-08-30T15:29:01.215Z,5.63
2018-08-30T15:31:34.147Z,13.60
2018-08-30T15:34:07.096Z,4.73
2018-08-30T15:36:39.932Z,5.78
2018-08-30T15:39:14.020Z,6.60
2018-08-30T15:41:46.951Z,4.83
2018-08-30T15:44:20.275Z,6.27
2018-08-30T15:46:53.568Z,7.77
2018-08-30T15:49:26.757Z,6.70
2018-08-30T15:52:00.934Z,8.87
2018-08-30T15:54:33.785Z,5.23
2018-08-30T15:57:06.903Z,6.37
2018-08-30T15:59:39.797Z,5.60
2018-08-30T16:02:12.774Z,5.17
2018-08-30T16:04:46.209Z,9.13
2018-08-30T16:07:19.517Z,2.93
2018-08-30T16:09:52.290Z,6.33
2018-08-30T16:12:25.593Z,3.17
2018-08-30T16:14:58.639Z,6.58
2018-08-30T16:17:31.897Z,7.90
2018-08-30T16:20:06.076Z,8.98
2018-08-30T16:23:03.689Z,9.10
2018-08-30T16:25:37.186Z,4.17
2018-08-30T16:28:10.591Z,5.17
2018-08-30T16:30:44.200Z,7.00
2018-08-30T16:33:17.438Z,5.25
2018-08-30T16:35:50.634Z,8.28
2018-08-30T16:38:23.810Z,8.40
2018-08-30T16:40:57.101Z,4.95
2018-08-30T16:43:30.145Z,6.28
2018-08-30T16:46:03.028Z,8.35
2018-08-30T16:51:56.111Z,22.60
2018-08-30T16:54:29.423Z,12.23
2018-08-30T16:57:02.150Z,6.45
2018-08-30T16:59:35.145Z,6.15
2018-08-30T17:02:08.696Z,4.72
2018-08-30T17:04:41.901Z,4.85
2018-08-30T17:07:22.993Z,7.53
2018-08-30T17:09:57.336Z,6.60
2018-08-30T17:12:31.509Z,6.58
2018-08-30T17:15:04.384Z,3.30
2018-08-30T17:17:37.290Z,8.63
2018-08-30T17:20:14.963Z,6.15
2018-08-30T17:22:48.214Z,13.72
2018-08-30T17:25:22.030Z,9.53
2018-08-30T17:27:55.109Z,2.83
2018-08-30T17:30:28.428Z,3.60
2018-08-30T17:33:01.167Z,7.80
2018-08-30T17:35:35.749Z,2.15
2018-08-30T17:38:08.460Z,3.83
2018-08-30T17:40:41.104Z,3.33
2018-08-30T17:43:14.001Z,3.10
2018-08-30T17:45:48.024Z,5.17
2018-08-30T17:48:21.068Z,3.15
2018-08-30T17:50:53.694Z,7.10
2018-08-30T17:53:26.440Z,3.67
2018-08-30T17:55:59.702Z,2.87
2018-08-30T17:58:32.646Z,3.60
2018-08-30T18:01:05.686Z,2.75
2018-08-30T18:03:38.442Z,5.60
2018-08-30T18:06:11.127Z,8.50
2018-08-30T18:08:43.871Z,13.58
2018-08-30T18:11:16.818Z,5.35
2018-08-30T18:14:31.121Z,3.15
2018-08-30T18:17:04.695Z,4.53
2018-08-30T18:19:37.975Z,3.02
2018-08-30T18:22:11.913Z,5.25
2018-08-30T18:24:59.641Z,4.28
2018-08-30T18:27:43.452Z,6.50
2018-08-30T18:30:16.462Z,8.23
2018-08-30T18:32:49.857Z,3.58
2018-08-30T18:35:22.731Z,2.98
2018-08-30T18:37:55.621Z,3.58
2018-08-30T18:40:28.512Z,3.77
2018-08-30T18:43:02.037Z,6.58
2018-08-30T18:45:37.481Z,7.30
2018-08-30T18:48:10.919Z,4.72
2018-08-30T18:50:43.928Z,4.03
2018-08-30T18:53:17.544Z,5.37
2018-08-30T18:55:50.814Z,5.70
2018-08-30T18:58:38.056Z,4.97
2018-08-30T19:01:11.897Z,3.95
2018-08-30T19:03:45.730Z,8.73
2018-08-30T19:06:21.866Z,6.62
2018-08-30T19:08:56.113Z,9.15
2018-08-30T19:11:29.289Z,4.72
2018-08-30T19:17:27.165Z,4.70
2018-08-30T19:20:00.212Z,4.80
2018-08-30T19:22:33.579Z,8.85
2018-08-30T19:25:10.469Z,5.35
2018-08-30T19:27:43.065Z,7.92
2018-08-30T19:30:21.068Z,6.42
2018-08-30T19:32:53.571Z,4.20
2018-08-30T19:35:30.287Z,6.17
2018-08-30T19:38:03.032Z,3.52
2018-08-30T19:40:39.762Z,3.30
2018-08-30T19:43:12.759Z,5.87
2018-08-30T19:45:45.356Z,17.92
2018-08-30T19:48:17.646Z,5.05
2018-08-30T19:50:50.614Z,5.37
2018-08-30T19:53:23.179Z,6.95
2018-08-30T19:55:55.749Z,3.10
2018-08-30T19:58:29.038Z,6.35
2018-08-30T20:01:01.970Z,4.03
2018-08-30T20:03:35.132Z,11.05
2018-08-30T20:06:10.291Z,7.15
2018-08-30T20:08:43.399Z,3.47
2018-08-30T20:11:16.423Z,4.60
2018-08-30T20:13:49.800Z,13.05
2018-08-30T20:16:22.679Z,7.33
2018-08-30T20:18:55.706Z,5.62
2018-08-30T20:21:28.265Z,6.85
2018-08-30T20:24:01.059Z,6.50
2018-08-30T20:26:35.673Z,3.72
2018-08-30T20:29:09.534Z,5.22
2018-08-30T20:31:43.559Z,4.85
2018-08-30T20:34:16.582Z,3.35
2018-08-30T20:36:49.673Z,3.37
2018-08-30T20:39:22.403Z,4.55
2018-08-30T20:41:54.891Z,3.33
2018-08-30T20:44:27.512Z,6.33
2018-08-30T20:47:01.704Z,4.03
2018-08-30T20:49:35.138Z,4.17
2018-08-30T20:52:08.536Z,3.42
2018-08-30T20:54:41.662Z,7.08
2018-08-30T20:57:18.542Z,7.55
2018-08-30T20:59:57.947Z,5.90
2018-08-30T21:02:37.256Z,20.60
2018-08-30T21:08:31.705Z,143.82
2018-08-30T21:11:04.595Z,14.13
2018-08-30T21:13:37.097Z,32.80
2018-08-30T21:16:34.065Z,12.82
2018-08-30T21:19:06.599Z,24.92
2018-08-30T21:21:39.915Z,33.53
2018-08-30T21:24:13.268Z,19.37
2018-08-30T21:26:45.724Z,16.40
2018-08-30T21:29:18.407Z,13.83
2018-08-30T21:31:51.112Z,15.77
2018-08-30T21:34:24.614Z,16.80
2018-08-30T21:36:57.178Z,46.17
2018-08-30T21:43:00.934Z,14.30
2018-08-30T21:45:33.428Z,16.50
2018-08-30T21:48:08.860Z,9.25
2018-08-30T21:50:43.334Z,13.37
2018-08-30T21:53:18.657Z,12.30
2018-08-30T21:55:53.968Z,16.80
2018-08-30T21:58:29.305Z,35.33
2018-08-30T22:01:04.387Z,17.53
2018-08-30T22:03:39.617Z,29.47
2018-08-30T22:06:14.723Z,42.53
2018-08-30T22:08:53.508Z,39.40
2018-08-30T22:11:28.688Z,35.83
2018-08-30T22:14:03.543Z,67.97
2018-08-30T22:16:39.393Z,22.30
2018-08-30T22:19:13.163Z,32.87
2018-08-30T22:21:46.015Z,22.63
2018-08-30T22:24:19.499Z,12.90
2018-08-30T22:26:52.751Z,33.60
2018-08-30T22:29:25.863Z,24.83
2018-08-30T22:31:58.948Z,27.23
2018-08-30T22:34:32.235Z,55.47
2018-08-30T22:37:05.283Z,87.03
2018-08-30T22:39:38.305Z,51.00
2018-08-30T22:42:11.236Z,221.30
2018-08-30T22:44:44.112Z,142.30
2018-08-30T22:47:17.300Z,227.37
2018-08-30T22:53:11.576Z,36.03
2018-08-30T22:55:44.116Z,21.23
2018-08-30T22:58:17.206Z,34.53
2018-08-30T23:00:49.887Z,31.00
2018-08-30T23:03:22.879Z,50.67
2018-08-30T23:05:55.540Z,76.90
2018-08-30T23:08:29.827Z,56.50
2018-08-30T23:11:02.314Z,89.27
2018-08-30T23:13:34.866Z,33.40
2018-08-30T23:16:12.109Z,34.10
2018-08-30T23:18:45.878Z,31.43
2018-08-30T23:24:49.517Z,31.37
2018-08-30T23:27:22.464Z,22.90
2018-08-30T23:29:55.082Z,25.50
2018-08-30T23:32:28.023Z,41.40
2018-08-30T23:35:00.120Z,30.70
2018-08-30T23:37:32.278Z,21.40
2018-08-30T23:40:05.525Z,19.27
2018-08-30T23:42:38.361Z,25.60
2018-08-30T23:45:10.706Z,33.03
2018-08-30T23:47:42.894Z,22.00
2018-08-30T23:50:15.838Z,22.03
2018-08-30T23:52:48.200Z,17.77
2018-08-30T23:55:21.555Z,22.03
2018-08-30T23:58:03.381Z,24.83
